Time;durP1;ratioP1;P1;durP2;ratioP2;P2;SDS_P1;SDS_P2;PMS_P1;PMS_P2;Temp;Humidity;BMP_temperature;BMP_pressure;BME280_temperature;BME280_humidity;BME280_pressure;Samples;Min_cycle;Max_cycle;Signal;HPM_P1;HPM_P2
2021/12/08 00:00:25;;;;;;;4.67;3.63;;;3.30;94.80;;;;;;6179769;23;20552;-80
2021/12/08 00:02:51;;;;;;;6.27;3.80;;;3.30;94.60;;;;;;6180895;23;20009;-81
2021/12/08 00:05:18;;;;;;;5.17;3.80;;;3.30;94.90;;;;;;6180351;23;20097;-80
2021/12/08 00:07:45;;;;;;;4.40;3.60;;;3.30;94.30;;;;;;6182138;23;20388;-81
2021/12/08 00:15:22;;;;;;;6.43;3.90;;;3.20;94.50;;;;;;6184122;23;20016;-80
2021/12/08 00:17:48;;;;;;;6.40;4.10;;;3.30;94.50;;;;;;6182168;23;20009;-80
2021/12/08 00:20:14;;;;;;;5.50;4.43;;;3.30;94.30;;;;;;6184286;23;20071;-80
2021/12/08 00:22:39;;;;;;;7.50;3.77;;;3.30;94.30;;;;;;6182291;23;20001;-80
2021/12/08 00:25:06;;;;;;;4.57;3.77;;;3.30;94.40;;;;;;6183930;23;20005;-80
2021/12/08 00:27:32;;;;;;;7.43;4.50;;;3.30;94.40;;;;;;6184014;23;20005;-80
2021/12/08 00:29:58;;;;;;;6.47;4.33;;;3.30;94.50;;;;;;6184147;23;20001;-80
2021/12/08 00:32:27;;;;;;;5.90;4.43;;;3.30;94.60;;;;;;6184265;23;20021;-79
2021/12/08 00:34:53;;;;;;;5.37;3.73;;;3.30;94.60;;;;;;6184768;23;20001;-80
2021/12/08 00:37:19;;;;;;;9.87;5.07;;;3.30;94.60;;;;;;6184676;23;20001;-80
2021/12/08 00:39:44;;;;;;;7.87;4.37;;;3.30;94.70;;;;;;6184975;23;20025;-80
2021/12/08 00:42:10;;;;;;;5.43;4.20;;;3.20;94.80;;;;;;6185191;23;20043;-80
2021/12/08 00:44:36;;;;;;;7.43;4.10;;;3.20;94.90;;;;;;6185356;23;20047;-80
2021/12/08 00:47:03;;;;;;;5.13;4.20;;;3.20;95.20;;;;;;6185856;23;20005;-80
2021/12/08 00:49:29;;;;;;;6.13;4.00;;;3.00;95.40;;;;;;6185874;23;20008;-81
2021/12/08 00:51:54;;;;;;;5.77;3.80;;;3.00;95.70;;;;;;6186102;23;20005;-81
2021/12/08 00:54:20;;;;;;;6.07;4.20;;;2.90;95.70;;;;;;6185989;23;20005;-80
2021/12/08 00:56:46;;;;;;;6.80;4.03;;;3.00;95.70;;;;;;6185887;23;20143;-80
2021/12/08 00:59:13;;;;;;;7.63;4.07;;;3.00;95.60;;;;;;6186045;23;20441;-80
2021/12/08 01:01:39;;;;;;;5.67;3.80;;;3.00;95.70;;;;;;6185704;23;20081;-80
2021/12/08 01:04:06;;;;;;;4.23;3.63;;;3.10;95.70;;;;;;6185505;23;20322;-79
2021/12/08 01:06:32;;;;;;;4.20;3.50;;;3.00;95.70;;;;;;6185676;23;20009;-80
2021/12/08 01:08:57;;;;;;;6.17;4.17;;;3.00;95.50;;;;;;6185837;23;20333;-81
2021/12/08 01:11:24;;;;;;;4.63;3.73;;;3.10;95.50;;;;;;6185727;23;20012;-80
2021/12/08 01:13:51;;;;;;;4.80;4.07;;;3.10;95.60;;;;;;6185846;23;20105;-79
2021/12/08 01:16:17;;;;;;;5.20;4.33;;;3.00;95.70;;;;;;6185381;23;20131;-80
2021/12/08 01:18:43;;;;;;;5.10;4.00;;;3.00;95.80;;;;;;6185433;23;20001;-80
2021/12/08 01:21:10;;;;;;;7.57;4.23;;;3.00;95.90;;;;;;6185554;23;20059;-81
2021/12/08 01:23:37;;;;;;;4.87;3.73;;;3.00;96.00;;;;;;6185489;23;20004;-81
2021/12/08 01:26:05;;;;;;;7.43;4.60;;;3.00;95.80;;;;;;6185220;23;20031;-80
2021/12/08 01:28:31;;;;;;;6.53;3.80;;;3.10;95.70;;;;;;6185328;23;20326;-80
2021/12/08 01:30:59;;;;;;;4.77;4.07;;;3.10;95.60;;;;;;6185504;23;20322;-80
2021/12/08 01:33:27;;;;;;;6.50;4.17;;;3.00;95.60;;;;;;6185543;23;20052;-80
2021/12/08 01:35:53;;;;;;;6.83;4.33;;;3.00;95.90;;;;;;6185187;23;20027;-80
2021/12/08 01:38:20;;;;;;;4.43;3.93;;;3.00;96.00;;;;;;6185019;23;20005;-80
2021/12/08 01:40:45;;;;;;;6.33;3.77;;;3.00;95.70;;;;;;6185280;23;20004;-81
2021/12/08 01:43:25;;;;;;;6.83;3.83;;;3.10;95.30;;;;;;6185522;23;20456;-80
2021/12/08 01:46:00;;;;;;;5.30;4.07;;;3.20;95.20;;;;;;6185294;23;20012;-80
2021/12/08 01:48:28;;;;;;;5.83;4.13;;;3.20;95.00;;;;;;6185707;23;20005;-81
2021/12/08 01:51:01;;;;;;;6.43;4.50;;;3.30;95.10;;;;;;6186244;23;20503;-79
2021/12/08 01:53:27;;;;;;;7.03;4.30;;;3.20;95.20;;;;;;6185109;23;20015;-80
2021/12/08 01:55:54;;;;;;;7.03;4.67;;;3.20;95.30;;;;;;6184468;23;20535;-80
2021/12/08 01:58:20;;;;;;;4.10;3.70;;;3.20;95.40;;;;;;6183559;23;20009;-81
2021/12/08 02:00:50;;;;;;;6.57;4.30;;;3.20;95.30;;;;;;6183213;23;20088;-80
2021/12/08 02:03:17;;;;;;;6.73;3.73;;;3.20;95.30;;;;;;6184911;23;20080;-80
2021/12/08 02:05:44;;;;;;;11.30;4.60;;;3.30;95.30;;;;;;6185051;23;19997;-80
2021/12/08 02:08:09;;;;;;;6.07;4.77;;;3.30;95.40;;;;;;6184972;23;20154;-79
2021/12/08 02:10:37;;;;;;;10.80;4.63;;;3.30;95.50;;;;;;6185068;23;20001;-80
2021/12/08 02:13:04;;;;;;;5.57;4.53;;;3.40;95.20;;;;;;6183131;23;20483;-80
2021/12/08 02:15:31;;;;;;;6.30;4.30;;;3.40;95.20;;;;;;6185308;23;20080;-80
2021/12/08 02:17:57;;;;;;;8.67;4.60;;;3.40;95.30;;;;;;6185098;23;20005;-81
2021/12/08 02:20:26;;;;;;;5.53;4.23;;;3.50;95.60;;;;;;6184759;23;19997;-80
2021/12/08 02:22:51;;;;;;;5.17;4.07;;;3.50;95.70;;;;;;6184847;23;20005;-81
2021/12/08 02:25:20;;;;;;;5.93;4.50;;;3.50;95.80;;;;;;6184781;23;20448;-81
2021/12/08 02:27:47;;;;;;;5.13;4.53;;;3.50;95.80;;;;;;6184804;23;20091;-81
2021/12/08 02:30:25;;;;;;;5.83;4.37;;;3.50;95.90;;;;;;6183019;23;20079;-80
2021/12/08 02:49:03;;;;;;;5.05;4.10;;;3.60;95.70;;;;;;6184415;23;20009;-80
2021/12/08 02:51:29;;;;;;;5.55;4.55;;;3.70;95.70;;;;;;6184608;23;20463;-81
2021/12/08 02:53:58;;;;;;;7.30;4.43;;;3.70;95.90;;;;;;6184598;23;20075;-80
2021/12/08 02:56:24;;;;;;;7.37;5.03;;;3.70;96.10;;;;;;6182699;23;20333;-81
2021/12/08 02:58:49;;;;;;;7.73;4.73;;;3.70;96.20;;;;;;6184142;23;20237;-79
2021/12/08 03:01:16;;;;;;;7.43;4.80;;;3.70;96.10;;;;;;6184650;23;20091;-80
2021/12/08 03:03:42;;;;;;;4.95;4.45;;;3.70;96.00;;;;;;6184286;23;20009;-80
2021/12/08 03:06:07;;;;;;;5.20;3.87;;;3.80;95.80;;;;;;6184453;23;20032;-81
2021/12/08 03:08:33;;;;;;;6.07;4.20;;;3.80;95.90;;;;;;6184232;23;20004;-79
2021/12/08 03:11:00;;;;;;;7.87;4.97;;;3.90;95.90;;;;;;6184215;23;20005;-80
2021/12/08 03:13:31;;;;;;;7.87;4.97;;;3.90;95.90;;;;;;6184278;23;20007;-81
2021/12/08 03:15:57;;;;;;;8.30;4.70;;;3.90;95.70;;;;;;6184256;23;20000;-81
2021/12/08 03:18:30;;;;;;;6.03;4.40;;;3.90;95.60;;;;;;6184227;23;20445;-80
2021/12/08 03:20:56;;;;;;;6.00;4.57;;;3.90;95.60;;;;;;6182454;23;20001;-81
2021/12/08 03:23:28;;;;;;;7.25;5.03;;;4.00;95.50;;;;;;6184134;23;20007;-81
2021/12/08 03:25:56;;;;;;;7.63;4.75;;;4.00;95.30;;;;;;6182513;23;20008;-80
2021/12/08 03:28:28;;;;;;;6.35;4.50;;;4.10;95.70;;;;;;6182419;23;20037;-80
2021/12/08 03:31:11;;;;;;;7.45;4.57;;;4.10;95.30;;;;;;6184321;23;20028;-81
2021/12/08 03:33:37;;;;;;;8.30;4.47;;;4.20;95.20;;;;;;6182268;23;20108;-80
2021/12/08 03:36:04;;;;;;;9.07;4.90;;;4.30;95.50;;;;;;6183947;23;20005;-81
2021/12/08 03:38:31;;;;;;;5.38;4.82;;;4.30;95.10;;;;;;6184041;23;20123;-80
2021/12/08 03:40:59;;;;;;;11.02;5.63;;;4.40;95.80;;;;;;6182639;23;20005;-81
2021/12/08 03:43:25;;;;;;;6.68;4.70;;;4.40;96.10;;;;;;6184009;23;20079;-80
2021/12/08 03:45:53;;;;;;;7.20;5.03;;;4.40;95.40;;;;;;6183887;23;19997;-80
2021/12/08 03:48:32;;;;;;;7.53;4.57;;;4.40;95.10;;;;;;6183990;23;20055;-80
2021/12/08 03:50:58;;;;;;;11.50;5.18;;;4.50;95.30;;;;;;6182077;23;20012;-80
2021/12/08 03:53:25;;;;;;;8.57;5.20;;;4.50;95.50;;;;;;6183950;23;20001;-81
2021/12/08 03:55:53;;;;;;;7.45;4.80;;;4.50;95.70;;;;;;6184089;23;20132;-80
2021/12/08 03:58:19;;;;;;;6.63;4.78;;;4.60;95.50;;;;;;6183961;23;20005;-80
2021/12/08 04:00:47;;;;;;;8.32;5.57;;;4.60;96.10;;;;;;6183828;23;20001;-80
2021/12/08 04:03:13;;;;;;;8.75;6.43;;;4.60;96.60;;;;;;6183693;23;20037;-80
2021/12/08 04:05:53;;;;;;;10.25;5.93;;;4.70;97.00;;;;;;6184174;23;20025;-80
2021/12/08 04:08:32;;;;;;;8.23;5.50;;;4.60;97.60;;;;;;6183797;23;20012;-80
2021/12/08 04:11:03;;;;;;;6.97;5.07;;;4.70;96.10;;;;;;6184070;23;20001;-81
2021/12/08 04:13:37;;;;;;;4.97;4.47;;;4.70;95.00;;;;;;6183924;23;20008;-81
2021/12/08 04:16:05;;;;;;;7.95;5.30;;;4.80;95.00;;;;;;6183723;23;20228;-80
2021/12/08 04:18:31;;;;;;;5.63;4.75;;;4.80;94.00;;;;;;6183841;23;20329;-80
2021/12/08 04:20:58;;;;;;;6.35;4.90;;;4.90;93.40;;;;;;6186024;23;20001;-81
2021/12/08 04:23:27;;;;;;;8.27;5.00;;;4.90;93.10;;;;;;6185728;23;20508;-80
2021/12/08 04:25:57;;;;;;;5.13;4.63;;;4.90;93.00;;;;;;6185795;23;20009;-80
2021/12/08 04:28:27;;;;;;;6.93;5.00;;;5.00;92.50;;;;;;6185868;23;20020;-80
2021/12/08 04:31:12;;;;;;;7.80;4.28;;;5.00;92.60;;;;;;6186088;23;20005;-80
2021/12/08 04:33:39;;;;;;;5.78;4.97;;;5.00;92.60;;;;;;6184291;23;20005;-81
2021/12/08 04:36:09;;;;;;;6.57;4.75;;;5.00;92.50;;;;;;6185737;23;20341;-80
2021/12/08 04:38:39;;;;;;;5.88;4.60;;;5.00;92.10;;;;;;6185753;23;20080;-80
2021/12/08 04:41:25;;;;;;;6.57;4.93;;;5.10;92.20;;;;;;6185942;23;20005;-80
2021/12/08 04:44:03;;;;;;;6.55;4.90;;;5.10;92.70;;;;;;6184169;23;20008;-80
2021/12/08 04:50:06;;;;;;;7.13;4.72;;;5.10;92.80;;;;;;6185759;23;20023;-80
2021/12/08 04:52:40;;;;;;;7.82;4.90;;;5.00;93.10;;;;;;6185342;23;20009;-80
2021/12/08 05:06:20;;;;;;;8.15;5.28;;;5.00;93.40;;;;;;6186893;23;20315;-80
2021/12/08 05:08:50;;;;;;;7.80;4.68;;;5.00;93.60;;;;;;6184108;23;20032;-80
2021/12/08 05:11:33;;;;;;;6.90;4.30;;;5.00;93.90;;;;;;6185474;23;20052;-81
2021/12/08 05:14:04;;;;;;;6.35;4.78;;;5.00;94.00;;;;;;6185246;23;20008;-80
2021/12/08 05:16:33;;;;;;;6.18;4.68;;;5.00;94.00;;;;;;6185091;23;20005;-81
2021/12/08 05:19:01;;;;;;;5.88;4.63;;;5.00;93.80;;;;;;6185151;23;20071;-81
2021/12/08 05:21:36;;;;;;;5.70;4.70;;;4.90;94.10;;;;;;6185198;23;20438;-80
2021/12/08 05:24:10;;;;;;;7.60;4.63;;;4.90;94.20;;;;;;6185270;23;20245;-80
2021/12/08 05:26:50;;;;;;;6.40;4.90;;;5.00;94.10;;;;;;6185287;23;20008;-81
2021/12/08 05:29:23;;;;;;;10.55;5.00;;;5.00;94.20;;;;;;6185094;23;20015;-81
2021/12/08 05:31:51;;;;;;;7.28;4.80;;;5.00;94.30;;;;;;6185052;23;20001;-81
2021/12/08 05:34:17;;;;;;;8.80;5.22;;;5.00;94.10;;;;;;6183380;23;20400;-80
2021/12/08 05:36:43;;;;;;;10.52;5.03;;;5.00;94.10;;;;;;6185017;23;20007;-80
2021/12/08 05:39:16;;;;;;;6.45;5.03;;;5.00;94.30;;;;;;6185232;23;19997;-81
2021/12/08 05:41:44;;;;;;;7.22;4.90;;;5.00;94.30;;;;;;6185212;23;20012;-81
2021/12/08 05:44:10;;;;;;;6.18;4.55;;;5.00;93.90;;;;;;6184778;23;19997;-80
2021/12/08 05:46:42;;;;;;;5.57;4.60;;;5.10;93.60;;;;;;6184666;23;20060;-80
2021/12/08 05:49:09;;;;;;;8.35;4.65;;;5.10;94.10;;;;;;6185092;23;20007;-81
2021/12/08 05:51:36;;;;;;;4.88;4.32;;;5.10;93.90;;;;;;6183660;23;20044;-80
2021/12/08 05:54:06;;;;;;;6.93;4.93;;;5.10;93.70;;;;;;6184899;23;20005;-80
2021/12/08 05:56:32;;;;;;;7.75;5.15;;;5.10;93.50;;;;;;6184736;23;20370;-81
2021/12/08 05:59:01;;;;;;;7.82;4.13;;;5.20;93.30;;;;;;6183022;23;20119;-80
2021/12/08 06:01:37;;;;;;;9.40;5.30;;;5.20;92.90;;;;;;6183255;23;20006;-80
2021/12/08 06:04:04;;;;;;;6.68;4.90;;;5.20;92.80;;;;;;6184646;23;20446;-80
2021/12/08 06:06:30;;;;;;;5.65;4.68;;;5.20;92.80;;;;;;6184699;23;20005;-81
2021/12/08 06:08:57;;;;;;;7.15;4.85;;;5.30;92.70;;;;;;6184896;23;20064;-80
2021/12/08 06:11:26;;;;;;;6.40;4.50;;;5.30;92.90;;;;;;6184701;23;20388;-80
2021/12/08 06:13:59;;;;;;;7.05;4.47;;;5.30;92.80;;;;;;6184807;23;20071;-81
2021/12/08 06:16:30;;;;;;;7.63;4.63;;;5.30;92.80;;;;;;6184773;23;20092;-80
2021/12/08 06:18:56;;;;;;;9.00;4.77;;;5.30;92.50;;;;;;6184744;23;20500;-80
2021/12/08 06:21:26;;;;;;;6.70;4.75;;;5.30;92.30;;;;;;6184671;23;20216;-80
2021/12/08 06:23:53;;;;;;;10.40;4.65;;;5.30;92.70;;;;;;6184572;23;20075;-81
2021/12/08 06:26:21;;;;;;;5.78;4.80;;;5.30;92.50;;;;;;6183099;23;20013;-80
2021/12/08 06:28:47;;;;;;;5.70;4.63;;;5.30;92.30;;;;;;6184774;23;20004;-80
2021/12/08 06:31:15;;;;;;;6.70;4.88;;;5.30;92.30;;;;;;6183263;23;20240;-80
2021/12/08 06:33:42;;;;;;;4.80;4.38;;;5.30;92.30;;;;;;6184879;23;20001;-80
2021/12/08 06:36:15;;;;;;;4.63;3.97;;;5.30;91.90;;;;;;6184660;23;19997;-80
2021/12/08 06:38:43;;;;;;;4.32;3.92;;;5.30;91.60;;;;;;6184554;23;20444;-81
2021/12/08 06:41:31;;;;;;;4.88;4.30;;;5.30;91.60;;;;;;6182652;23;20087;-80
2021/12/08 06:44:04;;;;;;;7.15;4.75;;;5.30;91.70;;;;;;6184300;23;19997;-80
2021/12/08 06:46:31;;;;;;;4.60;4.13;;;5.40;91.80;;;;;;6184287;23;20005;-80
2021/12/08 06:49:01;;;;;;;5.35;3.88;;;5.30;92.40;;;;;;6184520;23;20009;-80
2021/12/08 06:51:37;;;;;;;5.10;3.80;;;5.30;92.20;;;;;;6182803;23;20036;-80
2021/12/08 06:54:11;;;;;;;4.75;4.03;;;5.40;91.70;;;;;;6184448;23;20001;-81
2021/12/08 06:56:47;;;;;;;5.60;4.28;;;5.40;90.90;;;;;;6184144;23;20008;-79
2021/12/08 06:59:18;;;;;;;6.80;4.18;;;5.40;90.80;;;;;;6184417;23;20330;-80
2021/12/08 07:04:52;;;;;;;6.88;4.45;;;5.50;90.90;;;;;;6186374;23;20017;-80
2021/12/08 07:07:19;;;;;;;5.78;4.07;;;5.50;91.00;;;;;;6184225;23;20456;-80
2021/12/08 07:09:50;;;;;;;4.38;3.97;;;5.50;90.60;;;;;;6182780;23;20009;-80
2021/12/08 07:12:38;;;;;;;5.68;3.83;;;5.50;90.80;;;;;;6184256;23;20056;-80
2021/12/08 07:15:13;;;;;;;5.13;3.65;;;5.50;91.10;;;;;;6184292;23;20433;-80
2021/12/08 07:17:42;;;;;;;5.63;3.70;;;5.60;90.50;;;;;;6183972;23;20005;-80
2021/12/08 07:20:25;;;;;;;4.28;3.92;;;5.60;90.60;;;;;;6182577;23;20005;-80
2021/12/08 07:22:52;;;;;;;4.55;3.67;;;5.60;90.80;;;;;;6184284;23;20081;-81
2021/12/08 07:25:23;;;;;;;4.57;3.53;;;5.60;89.70;;;;;;6183790;23;20009;-80
2021/12/08 07:27:50;;;;;;;5.57;3.35;;;5.70;88.60;;;;;;6183949;23;20001;-80
2021/12/08 07:30:24;;;;;;;4.18;2.80;;;5.70;88.40;;;;;;6183810;23;20342;-81
2021/12/08 07:32:52;;;;;;;3.53;3.00;;;5.70;88.10;;;;;;6183619;23;20342;-80
2021/12/08 07:35:26;;;;;;;4.47;3.45;;;5.70;89.40;;;;;;6183696;23;20005;-80
2021/12/08 07:37:52;;;;;;;4.47;3.30;;;5.70;89.10;;;;;;6183764;23;20055;-80
2021/12/08 07:40:28;;;;;;;4.70;3.22;;;5.70;88.20;;;;;;6184129;23;20035;-80
2021/12/08 07:43:04;;;;;;;4.00;3.10;;;5.80;87.40;;;;;;6183748;23;20005;-81
2021/12/08 07:45:40;;;;;;;3.88;3.10;;;5.80;87.10;;;;;;6183709;23;20341;-81
2021/12/08 07:48:10;;;;;;;4.28;3.00;;;5.80;86.30;;;;;;6182058;23;20005;-80
2021/12/08 07:50:51;;;;;;;3.10;2.80;;;5.80;85.60;;;;;;6183869;23;20452;-81
2021/12/08 07:53:20;;;;;;;3.05;2.85;;;5.90;85.60;;;;;;6183672;23;20007;-80
2021/12/08 07:55:48;;;;;;;3.80;3.40;;;5.90;85.50;;;;;;6183678;23;20237;-81
2021/12/08 07:58:19;;;;;;;3.65;3.10;;;6.00;86.40;;;;;;6183669;23;20067;-80
2021/12/08 08:01:07;;;;;;;3.17;2.75;;;6.00;86.10;;;;;;6183520;23;20252;-80
2021/12/08 08:03:33;;;;;;;6.53;4.55;;;6.10;88.30;;;;;;6183454;23;20532;-81
2021/12/08 08:06:04;;;;;;;6.78;4.15;;;6.20;90.60;;;;;;6183513;23;20016;-80
2021/12/08 08:08:32;;;;;;;5.50;3.33;;;6.30;91.40;;;;;;6181885;23;20035;-80
2021/12/08 08:11:08;;;;;;;5.22;4.05;;;6.40;91.10;;;;;;6183786;23;20337;-80
2021/12/08 08:13:36;;;;;;;4.45;3.40;;;6.40;89.40;;;;;;6181878;23;20349;-80
2021/12/08 08:16:16;;;;;;;4.13;3.05;;;6.50;90.30;;;;;;6183579;23;20012;-80
2021/12/08 08:18:52;;;;;;;5.25;4.03;;;6.50;90.00;;;;;;6183792;23;20005;-80
2021/12/08 08:21:21;;;;;;;5.25;4.07;;;6.50;90.10;;;;;;6183692;23;20080;-80
2021/12/08 08:23:48;;;;;;;5.35;4.10;;;6.50;88.50;;;;;;6183516;23;20004;-80
2021/12/08 08:26:15;;;;;;;7.53;4.30;;;6.60;90.20;;;;;;6183614;23;20009;-80
2021/12/08 08:28:48;;;;;;;5.75;4.68;;;6.70;91.40;;;;;;6183444;23;19997;-79
2021/12/08 08:31:21;;;;;;;6.72;5.00;;;6.80;92.20;;;;;;6183528;23;19997;-80
2021/12/08 08:33:48;;;;;;;8.73;5.82;;;6.90;92.60;;;;;;6183579;23;19997;-80
2021/12/08 08:36:21;;;;;;;6.70;4.55;;;6.90;92.80;;;;;;6182978;23;20429;-80
2021/12/08 08:38:58;;;;;;;8.00;5.57;;;6.90;93.10;;;;;;6183480;23;20093;-80
2021/12/08 08:41:46;;;;;;;7.82;5.18;;;7.00;93.10;;;;;;6181874;23;20138;-79
2021/12/08 08:44:24;;;;;;;7.57;5.15;;;7.10;93.70;;;;;;6183293;23;19998;-80
2021/12/08 08:46:51;;;;;;;6.32;4.75;;;7.10;94.70;;;;;;6181552;23;20032;-80
2021/12/08 08:49:22;;;;;;;4.97;4.47;;;7.10;95.70;;;;;;6183206;23;20012;-80
2021/12/08 08:51:59;;;;;;;7.23;5.57;;;7.10;95.70;;;;;;6183272;23;20043;-80
2021/12/08 08:54:32;;;;;;;5.15;4.63;;;7.10;96.50;;;;;;6183167;23;20267;-80
2021/12/08 08:57:18;;;;;;;8.40;4.10;;;7.10;97.00;;;;;;6181638;23;20005;-81
2021/12/08 08:59:49;;;;;;;7.88;4.95;;;7.10;97.10;;;;;;6182640;23;20001;-80
2021/12/08 09:02:20;;;;;;;5.63;4.67;;;7.00;97.80;;;;;;6183380;23;20437;-79
2021/12/08 09:04:54;;;;;;;6.15;4.45;;;7.00;98.00;;;;;;6183610;23;19997;-80
2021/12/08 09:07:31;;;;;;;5.35;4.32;;;7.00;98.50;;;;;;6185146;23;20506;-80
2021/12/08 09:10:04;;;;;;;7.93;4.97;;;7.00;99.00;;;;;;6185079;23;20001;-80
2021/12/08 09:12:38;;;;;;;9.63;5.90;;;7.00;99.70;;;;;;6183340;23;20012;-80
2021/12/08 09:15:10;;;;;;;7.72;6.22;;;7.00;99.90;;;;;;6185272;23;20005;-80
2021/12/08 09:17:40;;;;;;;11.00;6.50;;;7.00;99.90;;;;;;6185054;23;20005;-80
2021/12/08 09:20:12;;;;;;;8.02;5.85;;;7.00;99.90;;;;;;6183430;23;20410;-80
2021/12/08 09:22:54;;;;;;;6.53;5.60;;;7.00;99.90;;;;;;6185174;23;19997;-80
2021/12/08 09:25:51;;;;;;;12.25;7.28;;;7.00;99.90;;;;;;6183362;23;20132;-80
2021/12/08 09:28:30;;;;;;;8.27;6.25;;;7.00;99.90;;;;;;6176185;23;20009;-80
2021/12/08 09:31:10;;;;;;;8.27;5.55;;;7.00;99.90;;;;;;6185214;23;20456;-80
2021/12/08 09:33:44;;;;;;;8.63;4.70;;;7.00;99.90;;;;;;6184786;23;20005;-80
2021/12/08 09:36:14;;;;;;;5.65;5.10;;;7.00;99.90;;;;;;6183970;23;20001;-80
2021/12/08 09:38:48;;;;;;;6.45;4.80;;;7.00;99.90;;;;;;6184813;23;20001;-80
2021/12/08 09:41:19;;;;;;;7.55;5.82;;;7.00;99.90;;;;;;6184915;23;20055;-80
2021/12/08 09:44:10;;;;;;;6.82;5.18;;;7.00;99.90;;;;;;6183418;23;20014;-80
2021/12/08 09:46:40;;;;;;;5.07;4.57;;;7.00;99.90;;;;;;6185950;23;20120;-80
2021/12/08 09:49:08;;;;;;;7.13;5.75;;;6.90;99.90;;;;;;6186067;23;20024;-80
2021/12/08 09:51:36;;;;;;;5.43;4.20;;;6.90;99.90;;;;;;6186442;23;19997;-80
2021/12/08 09:54:03;;;;;;;8.93;6.22;;;6.90;99.90;;;;;;6186369;23;19997;-80
2021/12/08 09:56:29;;;;;;;7.18;5.30;;;6.90;99.90;;;;;;6184643;23;20457;-81
2021/12/08 09:58:56;;;;;;;17.80;7.60;;;6.80;99.90;;;;;;6186473;23;20004;-81
2021/12/08 10:01:23;;;;;;;16.45;7.63;;;6.80;99.90;;;;;;6186257;23;20001;-80
2021/12/08 10:03:51;;;;;;;10.07;5.15;;;6.80;99.90;;;;;;6186221;23;20496;-80
2021/12/08 10:06:20;;;;;;;5.32;4.80;;;6.70;99.90;;;;;;6186203;23;20001;-81
2021/12/08 10:08:47;;;;;;;8.52;5.38;;;6.70;99.90;;;;;;6186196;23;20115;-80
2021/12/08 10:11:14;;;;;;;5.13;4.45;;;6.60;99.90;;;;;;6186092;23;20021;-81
2021/12/08 10:13:40;;;;;;;4.72;3.53;;;6.50;99.90;;;;;;6184444;23;20098;-80
2021/12/08 10:16:07;;;;;;;3.63;3.33;;;6.50;99.90;;;;;;6184555;23;19997;-80
2021/12/08 10:18:33;;;;;;;4.35;3.60;;;6.30;99.90;;;;;;6183992;23;20009;-81
2021/12/08 10:20:59;;;;;;;4.45;3.80;;;6.20;99.90;;;;;;6184658;23;19997;-81
2021/12/08 10:23:39;;;;;;;16.05;7.85;;;6.00;99.90;;;;;;6182773;23;19998;-81
2021/12/08 10:26:13;;;;;;;5.95;3.78;;;5.90;99.90;;;;;;6184212;23;20025;-80
2021/12/08 10:28:54;;;;;;;4.45;3.40;;;5.70;99.90;;;;;;6184443;23;20079;-80
2021/12/08 10:31:27;;;;;;;3.88;3.45;;;5.60;99.90;;;;;;6184596;23;20027;-79
2021/12/08 10:34:35;;;;;;;7.88;4.80;;;5.50;99.90;;;;;;6184462;23;20011;-80
2021/12/08 10:37:10;;;;;;;5.05;3.60;;;5.40;99.90;;;;;;6183549;23;20405;-79
2021/12/08 10:39:37;;;;;;;4.88;3.88;;;5.40;99.90;;;;;;6184364;23;20029;-79
2021/12/08 10:42:22;;;;;;;4.93;3.88;;;5.30;99.90;;;;;;6184262;23;20008;-79
2021/12/08 10:47:35;;;;;;;5.50;3.40;;;5.30;99.90;;;;;;6184344;23;20019;-79
2021/12/08 10:55:55;;;;;;;6.68;5.07;;;5.10;99.90;;;;;;6184135;23;20035;-79
2021/12/08 10:58:25;;;;;;;4.05;3.60;;;5.00;99.90;;;;;;6184204;23;20052;-79
2021/12/08 11:00:54;;;;;;;5.57;3.28;;;5.00;99.90;;;;;;6184174;23;20051;-78
2021/12/08 11:03:20;;;;;;;3.97;3.58;;;5.00;99.90;;;;;;6181109;23;20013;-79
2021/12/08 11:05:58;;;;;;;4.88;3.90;;;4.90;99.90;;;;;;6181673;23;20005;-78
2021/12/08 11:08:30;;;;;;;5.72;4.70;;;4.90;99.90;;;;;;6184253;23;20088;-78
2021/12/08 11:11:53;;;;;;;;;;;;;;;;;;;;;
2021/12/08 11:14:25;;;;;;;4.20;3.60;;;4.80;99.90;;;;;;6178434;23;20075;-78
2021/12/08 11:16:51;;;;;;;4.70;3.97;;;4.80;99.90;;;;;;6183489;23;20024;-78
2021/12/08 11:19:21;;;;;;;6.80;5.05;;;4.80;99.90;;;;;;6183800;23;20429;-78
2021/12/08 11:21:50;;;;;;;5.32;3.90;;;4.80;99.90;;;;;;6183376;23;20001;-79
2021/12/08 11:24:45;;;;;;;9.35;4.00;;;4.80;99.90;;;;;;6182217;23;20341;-79
2021/12/08 11:27:08;;;;;;;4.22;3.83;;;4.90;99.90;;;;;;6183423;23;20005;-79
2021/12/08 11:29:39;;;;;;;3.70;3.40;;;4.80;99.90;;;;;;6183824;23;20012;-79
2021/12/08 11:32:08;;;;;;;3.50;3.20;;;4.80;99.90;;;;;;6181062;23;20075;-79
2021/12/08 11:34:46;;;;;;;3.58;3.00;;;4.80;99.90;;;;;;6183280;23;20055;-79
2021/12/08 11:37:24;;;;;;;3.88;3.10;;;4.80;99.90;;;;;;6181456;23;20001;-79
2021/12/08 11:39:55;;;;;;;4.18;3.78;;;4.70;99.90;;;;;;6183898;23;20005;-79
2021/12/08 11:42:23;;;;;;;4.00;3.50;;;4.80;99.90;;;;;;6184007;23;19997;-80
2021/12/08 11:44:53;;;;;;;4.70;2.85;;;4.80;99.90;;;;;;6183743;23;20001;-79
2021/12/08 11:47:23;;;;;;;3.83;3.33;;;4.70;99.90;;;;;;6183714;23;20008;-79
2021/12/08 11:49:56;;;;;;;5.30;3.47;;;4.60;99.90;;;;;;6183837;23;20063;-79
2021/12/08 11:52:29;;;;;;;4.97;3.90;;;4.70;99.90;;;;;;6183704;23;20016;-79
2021/12/08 11:55:00;;;;;;;6.72;4.68;;;4.70;99.90;;;;;;6183905;23;20089;-79
2021/12/08 11:57:27;;;;;;;10.50;6.68;;;4.70;99.90;;;;;;6183601;23;20452;-79
2021/12/08 12:00:00;;;;;;;7.32;4.93;;;4.70;99.90;;;;;;6183710;23;19997;-79
2021/12/08 12:02:36;;;;;;;6.20;4.18;;;4.70;99.90;;;;;;6183590;23;20005;-79
2021/12/08 12:05:06;;;;;;;3.40;2.72;;;4.70;99.90;;;;;;6183118;23;20052;-79
2021/12/08 12:07:32;;;;;;;4.30;3.08;;;4.60;99.90;;;;;;6183037;23;20076;-79
2021/12/08 12:09:58;;;;;;;3.75;3.42;;;4.70;99.90;;;;;;6183034;23;20063;-79
2021/12/08 12:12:24;;;;;;;4.55;3.42;;;4.70;99.90;;;;;;6183702;23;20001;-79
2021/12/08 12:14:50;;;;;;;5.65;3.53;;;4.70;99.90;;;;;;6183906;23;20005;-79
2021/12/08 12:17:17;;;;;;;4.50;3.60;;;4.70;99.90;;;;;;6183691;23;20001;-79
2021/12/08 12:20:01;;;;;;;2.45;2.25;;;4.70;99.90;;;;;;6181688;23;20024;-79
2021/12/08 12:22:44;;;;;;;2.95;2.38;;;4.70;99.90;;;;;;6183982;23;20020;-79
2021/12/08 12:25:50;;;;;;;1.10;1.10;;;4.80;99.90;;;;;;6183984;23;20333;-79
2021/12/08 12:28:50;;;;;;;3.70;1.98;;;4.80;99.90;;;;;;6183868;23;20012;-79
2021/12/08 12:31:26;;;;;;;9.63;4.18;;;4.90;99.90;;;;;;6182242;23;20067;-79
2021/12/08 12:33:53;;;;;;;4.50;2.78;;;4.90;99.90;;;;;;6182288;23;20009;-79
2021/12/08 12:36:33;;;;;;;2.17;1.85;;;4.90;99.90;;;;;;6184129;23;20008;-79
2021/12/08 12:39:14;;;;;;;4.38;2.78;;;5.00;99.90;;;;;;6182855;23;20005;-79
2021/12/08 12:41:41;;;;;;;2.53;2.10;;;4.90;99.90;;;;;;6184855;23;20101;-79
2021/12/08 12:44:22;;;;;;;1.92;1.80;;;5.00;99.90;;;;;;6186923;23;20376;-79
2021/12/08 12:47:12;;;;;;;1.20;1.10;;;5.00;99.90;;;;;;6186881;23;20342;-79
2021/12/08 12:49:43;;;;;;;3.65;2.55;;;5.00;99.90;;;;;;6184275;23;20437;-79
2021/12/08 12:52:12;;;;;;;1.05;1.05;;;5.00;99.90;;;;;;6185800;23;20032;-79
2021/12/08 12:54:39;;;;;;;0.70;0.70;;;5.10;99.90;;;;;;6184271;23;20332;-79
2021/12/08 12:57:07;;;;;;;0.70;0.70;;;5.10;99.90;;;;;;6184693;23;20056;-79
2021/12/08 12:59:53;;;;;;;1.20;1.10;;;5.10;99.90;;;;;;6183782;23;20009;-79
2021/12/08 13:02:35;;;;;;;3.38;2.00;;;5.10;99.90;;;;;;6183849;23;20421;-79
2021/12/08 13:05:10;;;;;;;1.65;1.55;;;5.10;99.90;;;;;;6185608;23;20001;-79
2021/12/08 13:07:39;;;;;;;1.20;1.10;;;5.10;99.90;;;;;;6185356;23;20052;-79
2021/12/08 13:10:14;;;;;;;1.50;1.10;;;5.10;99.90;;;;;;6185338;23;20033;-79
2021/12/08 13:12:42;;;;;;;2.10;1.98;;;5.10;99.90;;;;;;6183927;23;20005;-79
2021/12/08 13:15:20;;;;;;;1.98;1.85;;;5.20;99.90;;;;;;6183498;23;20005;-79
2021/12/08 13:18:00;;;;;;;2.63;2.42;;;5.20;99.90;;;;;;6184903;23;20001;-79
2021/12/08 13:20:28;;;;;;;2.22;2.03;;;5.20;99.90;;;;;;6185389;23;20055;-79
2021/12/08 13:23:01;;;;;;;2.53;2.33;;;5.20;99.90;;;;;;6185312;23;20076;-79
2021/12/08 13:28:29;;;;;;;3.38;2.03;;;5.20;99.90;;;;;;6186881;23;20009;-79
2021/12/08 13:31:37;;;;;;;6.63;4.10;;;5.20;99.90;;;;;;6185214;23;20001;-79
2021/12/08 13:34:07;;;;;;;15.27;7.90;;;5.30;99.90;;;;;;6183185;23;20511;-79
2021/12/08 13:36:45;;;;;;;9.60;4.82;;;5.30;99.90;;;;;;6184937;23;20013;-79
2021/12/08 13:39:21;;;;;;;10.10;8.20;;;5.30;99.90;;;;;;6185103;23;20052;-79
2021/12/08 13:42:27;;;;;;;6.10;5.60;;;5.30;99.90;;;;;;6183513;23;20257;-79
2021/12/08 13:45:08;;;;;;;4.38;3.97;;;5.40;99.90;;;;;;6184458;23;20127;-79
2021/12/08 13:47:39;;;;;;;4.15;3.15;;;5.40;99.90;;;;;;6183091;23;20019;-79
2021/12/08 13:50:12;;;;;;;7.93;4.72;;;5.40;99.90;;;;;;6183395;23;20005;-79
2021/12/08 13:52:41;;;;;;;3.63;2.80;;;5.40;99.90;;;;;;6184580;23;20005;-79
2021/12/08 13:55:16;;;;;;;3.58;3.08;;;5.40;99.90;;;;;;6185033;23;20001;-79
2021/12/08 13:57:47;;;;;;;3.20;2.40;;;5.40;99.90;;;;;;6184782;23;20011;-79
2021/12/08 14:00:15;;;;;;;0.90;0.90;;;5.40;99.90;;;;;;6183033;23;20432;-79
2021/12/08 14:02:46;;;;;;;1.13;1.02;;;5.40;99.90;;;;;;6184792;23;20009;-79
2021/12/08 14:05:17;;;;;;;1.80;1.52;;;5.40;99.90;;;;;;6184911;23;20001;-79
2021/12/08 14:07:51;;;;;;;1.33;1.23;;;5.40;99.90;;;;;;6183361;23;20005;-79
2021/12/08 14:10:39;;;;;;;1.77;1.67;;;5.30;99.90;;;;;;6184836;23;20007;-79